Time;durP1;ratioP1;P1;durP2;ratioP2;P2;SDS_P1;SDS_P2;PMS_P1;PMS_P2;Temp;Humidity;BMP_temperature;BMP_pressure;BME280_temperature;BME280_humidity;BME280_pressure;Samples;Min_cycle;Max_cycle;Signal;HPM_P1;HPM_P2
2023/12/23 00:00:15;;;;;;;2.07;1.10;;;10.70;96.40;;;10.99;60.25;98110.00;4863209;29;123627;-82
2023/12/23 00:02:42;;;;;;;3.97;1.23;;;10.70;96.50;;;10.95;60.36;98128.38;4865155;29;123185;-83
2023/12/23 00:05:10;;;;;;;3.77;1.37;;;10.70;96.60;;;10.95;60.25;98120.88;4868054;28;114093;-83
2023/12/23 00:07:37;;;;;;;4.80;1.50;;;11.30;97.00;;;10.93;60.64;98136.97;4862039;28;113433;-83
2023/12/23 00:10:06;;;;;;;3.80;1.43;;;11.30;97.00;;;10.92;60.54;98134.56;4858711;28;123492;-78
2023/12/23 00:12:32;;;;;;;4.50;1.93;;;10.70;96.80;;;10.89;60.63;98136.03;4836515;28;122540;-84
2023/12/23 00:14:59;;;;;;;3.03;1.00;;;10.70;96.90;;;10.89;60.49;98127.75;4867225;29;113689;-83
2023/12/23 00:17:25;;;;;;;5.30;1.33;;;12.20;97.50;;;10.87;60.57;98138.31;4869648;28;112999;-82
2023/12/23 00:19:52;;;;;;;3.23;1.27;;;10.60;96.90;;;10.88;60.63;98137.19;4864340;29;123640;-79
2023/12/23 00:22:20;;;;;;;5.20;1.20;;;10.70;96.90;;;10.90;60.43;98145.94;4863650;29;123084;-84
2023/12/23 00:24:48;;;;;;;3.27;1.40;;;10.60;96.80;;;10.89;60.76;98157.34;4864762;29;114071;-83
2023/12/23 00:27:14;;;;;;;5.80;1.57;;;10.60;96.80;;;10.86;60.29;98180.94;4887584;28;112203;-85
2023/12/23 00:29:42;;;;;;;4.77;1.30;;;10.60;96.60;;;10.86;60.09;98164.34;4864041;29;123716;-83
2023/12/23 00:32:09;;;;;;;2.67;1.37;;;10.60;96.60;;;10.82;60.47;98161.41;4865288;28;122857;-84
2023/12/23 00:34:37;;;;;;;2.43;1.20;;;10.60;96.60;;;10.84;60.04;98150.84;4864935;29;114275;-83
2023/12/23 00:37:05;;;;;;;3.87;1.57;;;10.60;96.60;;;10.83;59.99;98170.53;4865833;29;114311;-84
2023/12/23 00:39:40;;;;;;;4.90;1.73;;;10.60;96.60;;;10.84;60.39;98172.16;4865378;29;123361;-83
2023/12/23 00:42:13;;;;;;;4.43;1.60;;;11.00;96.90;;;10.83;60.96;98170.53;4866649;28;122902;-84
2023/12/23 00:44:42;;;;;;;2.97;1.40;;;10.60;97.00;;;10.81;61.05;98176.38;4875541;28;114592;-84
2023/12/23 00:47:10;;;;;;;8.63;1.73;;;12.00;97.70;;;10.79;61.54;98184.19;4899921;28;112159;-83
2023/12/23 00:49:44;;;;;;;6.60;1.90;;;10.60;97.30;;;10.76;62.11;98187.59;4874002;28;124522;-83
2023/12/23 00:52:12;;;;;;;3.30;1.60;;;10.70;97.50;;;10.72;61.80;98192.19;4865918;29;123717;-84
2023/12/23 00:54:42;;;;;;;3.93;1.40;;;10.50;97.50;;;10.68;62.24;98193.97;4883978;28;113146;-84
2023/12/23 00:57:15;;;;;;;4.90;1.73;;;10.50;97.50;;;10.64;62.11;98195.78;4880769;28;113627;-83
2023/12/23 00:59:41;;;;;;;3.00;1.30;;;10.40;97.50;;;10.61;62.09;98197.25;4866683;29;123927;-82
2023/12/23 01:02:14;;;;;;;6.63;1.73;;;10.40;97.40;;;10.60;61.74;98201.13;4868982;29;123060;-83
2023/12/23 01:04:41;;;;;;;3.00;1.40;;;10.40;97.50;;;10.58;62.23;98197.88;4868173;29;113766;-83
2023/12/23 01:07:07;;;;;;;2.50;1.13;;;10.90;97.70;;;10.57;61.71;98199.00;4850109;29;112943;-82
2023/12/23 01:09:43;;;;;;;4.13;1.27;;;10.30;97.50;;;10.59;61.67;98210.56;4860627;29;123615;-82
2023/12/23 01:12:18;;;;;;;2.90;1.40;;;10.40;97.50;;;10.59;61.94;98207.00;4875529;28;123003;-81
2023/12/23 01:14:44;;;;;;;4.87;1.43;;;10.30;97.40;;;10.54;61.76;98229.25;4888047;28;114406;-82
2023/12/23 01:17:18;;;;;;;3.60;1.47;;;10.40;97.40;;;10.56;61.35;98216.75;4882773;28;113558;-82
2023/12/23 01:19:45;;;;;;;4.73;1.40;;;10.40;97.30;;;10.54;61.40;98213.47;4876254;28;123216;-83
2023/12/23 01:22:16;;;;;;;2.30;1.10;;;10.40;97.20;;;10.56;61.59;98225.03;4869036;28;123252;-82
2023/12/23 01:24:56;;;;;;;3.40;1.20;;;10.30;97.20;;;10.57;61.32;98243.22;4855239;29;114455;-82
2023/12/23 01:27:26;;;;;;;1.70;1.07;;;10.30;97.10;;;10.57;61.52;98257.03;4868866;29;114357;-82
2023/12/23 01:29:54;;;;;;;3.73;1.17;;;10.40;97.20;;;10.61;61.17;98230.38;4868301;28;123674;-83
2023/12/23 01:32:43;;;;;;;2.00;1.10;;;10.40;97.10;;;10.61;61.34;98260.78;4869830;28;123723;-82
2023/12/23 01:35:17;;;;;;;2.87;1.00;;;9.00;97.00;;;10.66;61.46;98256.19;4883371;28;112108;-82
2023/12/23 01:37:46;;;;;;;2.40;1.03;;;10.40;97.20;;;10.61;61.38;98263.53;4870640;28;114073;-83
2023/12/23 01:40:26;;;;;;;2.13;1.03;;;10.40;97.30;;;10.57;61.79;98281.88;4862218;29;123516;-83
2023/12/23 01:43:24;;;;;;;1.50;1.00;;;10.40;97.40;;;10.50;62.04;98264.16;4861141;29;123295;-84
2023/12/23 01:45:59;;;;;;;1.37;1.10;;;10.30;97.50;;;10.43;62.15;98248.09;4875021;29;114134;-84
2023/12/23 01:48:42;;;;;;;1.97;1.50;;;10.30;97.50;;;10.42;62.45;98271.31;4861434;29;113588;-82
2023/12/23 01:51:33;;;;;;;2.10;1.17;;;10.30;97.60;;;10.40;62.44;98259.81;4887090;28;124164;-82
2023/12/23 01:54:16;;;;;;;5.73;1.23;;;10.20;97.70;;;10.35;62.90;98290.34;4857741;29;124416;-83
2023/12/23 01:56:44;;;;;;;2.57;1.30;;;10.60;97.80;;;10.37;62.57;98271.50;4861311;29;114130;-83
2023/12/23 01:59:31;;;;;;;4.93;1.83;;;10.20;97.70;;;10.37;62.28;98285.31;4860121;29;113681;-84
2023/12/23 02:01:59;;;;;;;4.10;1.43;;;10.20;97.60;;;10.39;62.10;98305.09;4868390;29;124215;-83
2023/12/23 02:04:34;;;;;;;3.83;1.70;;;10.20;97.60;;;10.42;62.37;98287.06;4876382;29;124147;-82
2023/12/23 02:10:17;;;;;;;4.43;1.80;;;10.20;97.40;;;10.40;62.41;98273.59;5825253;23;114914;-83
2023/12/23 02:13:06;;;;;;;4.87;1.93;;;10.30;97.70;;;10.38;61.75;98292.44;4877222;29;122245;-83
2023/12/23 02:15:37;;;;;;;3.63;1.43;;;9.00;97.40;;;10.39;61.70;98277.50;4875010;29;123417;-84
2023/12/23 02:18:36;;;;;;;5.20;1.70;;;10.10;97.80;;;10.36;62.14;98290.00;4873052;29;113972;-82
2023/12/23 02:21:17;;;;;;;4.70;2.00;;;10.30;97.40;;;10.38;62.20;98273.91;4890725;28;115079;-83
2023/12/23 02:23:45;;;;;;;2.40;1.43;;;9.50;98.10;;;10.38;61.65;98281.41;4873884;29;123924;-83
2023/12/23 02:26:27;;;;;;;4.23;1.97;;;12.70;98.70;;;10.36;62.25;98276.19;4871781;29;123111;-84
2023/12/23 02:28:58;;;;;;;2.27;1.37;;;10.20;97.50;;;10.38;61.84;98270.34;4862928;29;113730;-84
2023/12/23 02:31:26;;;;;;;3.60;1.37;;;10.20;97.50;;;10.39;62.25;98299.56;4839764;29;111803;-83
2023/12/23 02:33:55;;;;;;;8.03;1.70;;;12.10;98.60;;;10.39;61.95;98266.44;4847654;29;123544;-83
2023/12/23 02:36:23;;;;;;;2.70;1.27;;;11.80;98.60;;;10.42;62.74;98287.88;4863413;29;122542;-83
2023/12/23 02:38:50;;;;;;;4.37;1.50;;;10.10;98.50;;;10.39;62.36;98305.09;4871250;29;113782;-83
2023/12/23 02:41:38;;;;;;;1.87;1.07;;;8.10;97.90;;;10.38;62.52;98297.97;4877435;29;113555;-82
2023/12/23 02:44:23;;;;;;;6.90;1.63;;;7.70;97.30;;;10.34;62.55;98283.16;4862626;29;123503;-81
2023/12/23 02:46:55;;;;;;;3.60;1.20;;;8.80;98.30;;;10.35;62.87;98290.34;4875139;29;123505;-81
2023/12/23 02:53:14;;;;;;;3.20;1.33;;;8.70;97.70;;;10.32;62.73;98289.03;4866403;29;116269;-81
2023/12/23 02:55:40;;;;;;;3.83;1.40;;;10.20;98.40;;;10.31;63.02;98286.56;4877015;29;123885;-81
2023/12/23 02:58:17;;;;;;;4.70;1.20;;;10.10;98.30;;;10.34;62.75;98311.63;4873116;29;124647;-81
2023/12/23 03:00:54;;;;;;;5.00;1.30;;;12.20;99.20;;;10.38;62.46;98317.28;4871455;29;114004;-81
2023/12/23 03:03:22;;;;;;;4.80;1.70;;;7.80;97.80;;;10.40;62.08;98350.94;4873071;29;113238;-80
2023/12/23 03:05:55;;;;;;;4.57;1.10;;;13.00;99.80;;;10.41;62.15;98324.94;4871448;29;123992;-81
2023/12/23 03:08:30;;;;;;;3.20;1.40;;;12.30;99.00;;;10.38;61.84;98320.88;4852297;29;123387;-80
2023/12/23 03:10:56;;;;;;;2.87;1.40;;;10.70;98.30;;;10.35;61.66;98315.19;4851012;29;114387;-80
2023/12/23 03:14:05;;;;;;;4.00;1.70;;;11.40;98.40;;;10.37;61.76;98315.69;4853903;29;114661;-81
2023/12/23 03:16:52;;;;;;;5.77;1.97;;;9.30;97.40;;;10.37;61.75;98315.69;4855021;29;123756;-83
2023/12/23 03:19:47;;;;;;;12.77;1.90;;;10.20;97.30;;;10.37;61.56;98301.88;4857360;29;122539;-83
2023/12/23 03:22:26;;;;;;;4.57;1.67;;;10.10;97.20;;;10.41;61.14;98305.59;4845212;29;113893;-81
2023/12/23 03:25:00;;;;;;;7.07;1.77;;;12.70;98.70;;;10.42;61.24;98315.50;4854523;29;112657;-81
2023/12/23 03:27:26;;;;;;;4.23;1.80;;;10.40;97.80;;;10.42;60.93;98304.44;4851924;29;123930;-82
2023/12/23 03:29:57;;;;;;;5.27;1.90;;;10.50;97.50;;;10.44;60.97;98324.28;4838807;29;123380;-83
2023/12/23 03:32:24;;;;;;;3.03;1.50;;;12.50;98.30;;;10.46;60.89;98316.50;4837312;29;114116;-83
2023/12/23 03:35:02;;;;;;;5.05;1.50;;;11.90;97.80;;;10.48;60.49;98311.47;4841802;29;113268;-82
2023/12/23 03:37:42;;;;;;;5.50;2.13;;;10.20;97.00;;;10.50;60.11;98302.84;4834000;29;122894;-82
2023/12/23 03:40:14;;;;;;;4.50;1.70;;;13.10;98.80;;;10.50;60.11;98300.06;4843675;29;122867;-84
2023/12/23 03:42:49;;;;;;;4.20;1.40;;;11.70;97.60;;;10.50;60.33;98300.06;4843964;29;114514;-83
2023/12/23 03:45:20;;;;;;;7.07;2.07;;;10.30;97.10;;;10.51;60.20;98310.81;4854847;29;113094;-84
2023/12/23 03:47:47;;;;;;;7.30;1.60;;;11.90;97.70;;;10.50;60.43;98300.88;4852884;29;123686;-83
2023/12/23 03:50:13;;;;;;;7.13;1.20;;;11.20;97.40;;;10.49;60.34;98321.38;4853579;29;123509;-83
2023/12/23 03:52:41;;;;;;;3.93;1.37;;;10.30;96.90;;;10.47;60.19;98312.59;4855999;29;114347;-83
2023/12/23 03:55:15;;;;;;;4.00;1.50;;;11.70;97.70;;;10.48;59.89;98330.81;4858948;29;113163;-83
2023/12/23 03:57:51;;;;;;;3.13;1.30;;;10.10;97.00;;;10.49;60.26;98315.84;4858011;29;123607;-83
2023/12/23 04:00:26;;;;;;;2.73;1.30;;;11.30;97.50;;;10.48;59.85;98308.69;4859438;29;124024;-82
2023/12/23 04:03:09;;;;;;;3.03;1.10;;;12.70;97.60;;;10.46;60.26;98277.81;4857491;29;115362;-83
2023/12/23 04:06:20;;;;;;;2.60;1.47;;;12.90;98.20;;;10.47;60.43;98284.16;4856418;29;114639;-81
2023/12/23 04:09:00;;;;;;;3.10;1.33;;;8.00;96.10;;;10.46;59.84;98265.97;4836554;29;123363;-83
2023/12/23 04:11:26;;;;;;;6.83;1.20;;;12.00;97.30;;;10.44;59.99;98271.81;4845747;29;123519;-82
2023/12/23 04:13:58;;;;;;;5.57;1.40;;;11.90;97.80;;;10.45;60.08;98259.66;4840740;29;114235;-80
2023/12/23 04:16:24;;;;;;;3.27;1.40;;;10.20;97.10;;;10.46;60.43;98263.22;4835645;29;113710;-83
2023/12/23 04:19:14;;;;;;;4.77;1.40;;;13.00;98.10;;;10.45;60.39;98265.16;4834328;29;123445;-82
2023/12/23 04:21:54;;;;;;;3.33;1.27;;;10.40;96.60;;;10.44;59.85;98257.19;4836294;29;123449;-83
2023/12/23 04:24:21;;;;;;;4.10;1.70;;;9.30;97.00;;;10.42;59.73;98253.94;4835914;29;114276;-82
2023/12/23 04:26:47;;;;;;;1.97;1.30;;;10.80;97.10;;;10.42;60.17;98260.25;4837353;29;114094;-82
2023/12/23 04:29:16;;;;;;;3.80;1.30;;;11.80;97.50;;;10.43;59.48;98270.19;4837040;29;123579;-84
2023/12/23 04:31:54;;;;;;;2.23;1.30;;;10.20;96.50;;;10.41;59.25;98271.66;4836405;29;123518;-84
2023/12/23 04:34:22;;;;;;;2.93;1.33;;;13.00;97.80;;;10.39;59.16;98258.16;4850894;29;114361;-83
2023/12/23 04:36:50;;;;;;;1.70;1.30;;;12.90;97.70;;;10.39;59.12;98238.81;4874492;29;112096;-83
2023/12/23 04:39:38;;;;;;;2.63;1.53;;;10.10;96.70;;;10.43;58.80;98252.81;4857813;29;122721;-83
2023/12/23 04:42:12;;;;;;;2.50;1.37;;;9.20;95.80;;;10.44;59.09;98243.38;4856602;29;123597;-83
2023/12/23 04:44:45;;;;;;;4.13;1.47;;;10.10;96.00;;;10.44;58.76;98257.19;4857205;29;113362;-83
2023/12/23 04:47:16;;;;;;;4.37;1.53;;;11.50;96.50;;;10.43;58.62;98245.34;4855517;29;113287;-83
2023/12/23 04:49:48;;;;;;;2.50;1.23;;;10.20;96.40;;;10.45;58.51;98229.25;4854748;29;123488;-83
2023/12/23 04:52:15;;;;;;;3.87;1.30;;;13.00;97.30;;;10.43;57.83;98239.00;4837803;29;123433;-83
2023/12/23 04:54:43;;;;;;;2.23;1.30;;;11.50;96.30;;;10.45;57.91;98242.22;4838106;29;114750;-83
2023/12/23 04:57:20;;;;;;;3.50;2.13;;;12.90;96.80;;;10.47;58.34;98254.59;4838823;29;114117;-83
2023/12/23 04:59:49;;;;;;;3.63;1.43;;;11.30;96.40;;;10.49;57.82;98251.50;4839522;29;124509;-84
2023/12/23 05:02:16;;;;;;;2.40;1.23;;;10.70;95.80;;;10.50;57.32;98247.59;4836902;29;123674;-83
2023/12/23 05:04:49;;;;;;;5.20;1.80;;;12.10;96.10;;;10.51;57.03;98252.00;4845312;29;113488;-82
2023/12/23 05:07:39;;;;;;;3.77;1.40;;;8.00;94.70;;;10.54;57.00;98256.88;4857487;29;113740;-82
2023/12/23 05:10:06;;;;;;;1.20;1.00;;;10.30;94.80;;;10.54;57.06;98238.34;4859977;29;123831;-81
2023/12/23 05:12:38;;;;;;;2.97;1.10;;;8.60;94.70;;;10.60;56.52;98245.31;4873342;29;123279;-83
2023/12/23 05:15:05;;;;;;;2.50;1.23;;;12.10;95.70;;;10.59;56.63;98243.72;4845291;29;113955;-83
2023/12/23 05:17:58;;;;;;;4.47;1.50;;;10.40;94.80;;;10.60;56.21;98255.56;4844352;29;113034;-83
2023/12/23 05:20:29;;;;;;;2.90;1.00;;;10.40;94.50;;;10.59;56.32;98254.75;4837414;29;123553;-83
2023/12/23 05:23:05;;;;;;;1.37;1.00;;;10.40;95.20;;;10.60;56.65;98228.75;4839478;29;123420;-83
2023/12/23 05:25:39;;;;;;;1.37;0.93;;;8.50;94.70;;;10.56;56.96;98222.25;4856652;29;114010;-82
2023/12/23 05:28:07;;;;;;;1.67;1.13;;;9.40;94.90;;;10.56;56.56;98227.78;4856559;29;113803;-83
2023/12/23 05:30:44;;;;;;;1.53;1.07;;;10.30;95.20;;;10.56;57.23;98232.50;4846729;29;123577;-83
2023/12/23 05:33:19;;;;;;;1.57;1.00;;;10.40;95.30;;;10.58;56.98;98238.50;4870157;29;122144;-83
2023/12/23 05:35:58;;;;;;;0.90;0.80;;;10.00;95.10;;;10.58;57.44;98241.25;4841096;29;113605;-84
2023/12/23 05:38:24;;;;;;;3.23;0.93;;;13.00;96.50;;;10.58;57.54;98244.81;4841863;29;113511;-83
2023/12/23 05:41:03;;;;;;;2.40;0.90;;;13.00;96.40;;;10.59;57.81;98234.59;4854584;29;123264;-83
2023/12/23 05:43:32;;;;;;;1.80;0.80;;;10.30;95.80;;;10.58;57.85;98249.53;4817470;29;123628;-80
2023/12/23 05:46:30;;;;;;;1.63;1.03;;;11.60;96.10;;;10.55;57.84;98259.28;4863297;29;113606;-84
2023/12/23 05:49:23;;;;;;;1.00;0.80;;;10.20;95.20;;;10.52;58.07;98237.03;4852046;29;114996;-84
2023/12/23 05:51:54;;;;;;;1.03;0.83;;;8.10;94.90;;;10.51;58.40;98241.75;4836913;29;123971;-83
2023/12/23 05:54:37;;;;;;;1.03;0.87;;;11.60;96.40;;;10.50;58.29;98231.84;4838781;29;122876;-83
2023/12/23 05:57:16;;;;;;;1.30;0.90;;;12.70;97.00;;;10.53;58.58;98256.06;4839799;29;113845;-84
2023/12/23 05:59:49;;;;;;;0.90;0.80;;;11.90;96.80;;;10.51;58.74;98236.25;4853258;29;114104;-84
2023/12/23 06:02:16;;;;;;;1.30;0.90;;;10.20;96.20;;;10.50;58.86;98233.78;4853019;29;123896;-84
2023/12/23 06:04:52;;;;;;;1.23;0.90;;;10.30;96.00;;;10.49;59.44;98226.66;4852861;29;123186;-83
2023/12/23 06:07:21;;;;;;;1.53;0.80;;;12.30;97.50;;;10.48;59.78;98245.19;4840527;29;113537;-84
2023/12/23 06:10:10;;;;;;;1.30;0.83;;;13.10;97.70;;;10.43;60.05;98239.81;4833838;29;113976;-84
2023/12/23 06:12:38;;;;;;;1.63;0.90;;;9.40;96.50;;;10.40;60.58;98234.94;4836869;29;124049;-84
2023/12/23 06:15:09;;;;;;;0.90;0.70;;;11.70;97.50;;;10.39;60.52;98236.06;4835418;29;124526;-84
2023/12/23 06:17:40;;;;;;;1.00;0.80;;;10.10;96.50;;;10.39;60.60;98225.03;4828167;29;113825;-84
2023/12/23 06:20:17;;;;;;;2.77;1.30;;;12.60;98.00;;;10.40;60.67;98221.13;4849764;29;112127;-85
2023/12/23 06:22:43;;;;;;;1.77;0.80;;;10.30;97.30;;;10.37;60.76;98208.00;4851817;28;121822;-84
2023/12/23 06:25:13;;;;;;;0.90;0.70;;;13.60;98.40;;;10.34;60.95;98216.91;4849428;29;124599;-84
2023/12/23 06:27:39;;;;;;;1.00;0.80;;;10.20;97.40;;;10.36;61.24;98200.81;4853643;29;114065;-84
2023/12/23 06:30:28;;;;;;;1.63;0.80;;;10.30;97.50;;;10.35;61.07;98204.72;4848506;29;114546;-85
2023/12/23 06:33:01;;;;;;;0.97;0.70;;;12.20;97.80;;;10.34;61.48;98239.81;4846527;29;123932;-84
2023/12/23 06:35:44;;;;;;;0.97;0.70;;;12.40;98.40;;;10.29;61.30;98217.91;4843750;29;123399;-85
2023/12/23 06:38:13;;;;;;;1.47;1.00;;;8.90;97.30;;;10.29;61.47;98212.38;4846282;29;114868;-84
2023/12/23 06:40:44;;;;;;;1.00;0.70;;;12.30;98.20;;;10.30;61.35;98216.75;4846282;29;114304;-84
2023/12/23 06:43:10;;;;;;;0.90;0.70;;;10.00;97.30;;;10.30;61.60;98213.19;4841598;29;123239;-83
2023/12/23 06:45:47;;;;;;;1.80;1.00;;;10.00;97.40;;;10.31;61.20;98210.06;4870404;28;122049;-84
2023/12/23 06:48:24;;;;;;;1.00;0.90;;;11.30;97.80;;;10.29;61.55;98211.53;4854544;29;113511;-84
2023/12/23 06:54:33;;;;;;;0.90;0.80;;;10.20;97.10;;;10.24;61.80;98204.22;4861742;29;125141;-84
2023/12/23 06:57:09;;;;;;;1.10;0.80;;;10.00;97.80;;;10.21;61.73;98220.59;4843438;29;122149;-84
2023/12/23 06:59:54;;;;;;;1.00;0.73;;;9.80;98.10;;;10.20;61.82;98211.50;4840497;29;114196;-83
2023/12/23 07:03:22;;;;;;;1.23;0.80;;;11.60;98.80;;;10.16;62.00;98196.75;4839710;29;113654;-83
2023/12/23 07:05:49;;;;;;;0.90;0.73;;;7.90;97.00;;;10.11;62.46;98206.00;4857285;29;124829;-83
2023/12/23 07:09:19;;;;;;;0.90;0.70;;;9.80;98.60;;;10.12;62.30;98210.38;4840739;29;123262;-85
2023/12/23 07:11:46;;;;;;;1.10;0.80;;;9.90;97.90;;;10.10;62.45;98209.06;4859811;29;115027;-83
2023/12/23 07:14:16;;;;;;;2.67;0.90;;;10.00;98.00;;;10.12;62.08;98207.59;4860313;29;113942;-84
2023/12/23 07:16:49;;;;;;;0.90;0.77;;;9.90;98.70;;;10.16;62.38;98208.59;4843073;29;123581;-85
2023/12/23 07:19:33;;;;;;;1.30;1.00;;;12.00;98.60;;;10.21;62.17;98226.13;4874627;29;123240;-85
2023/12/23 07:22:05;;;;;;;1.00;0.90;;;10.60;98.20;;;10.22;62.18;98222.25;4862081;28;113390;-84
2023/12/23 07:24:45;;;;;;;0.90;0.70;;;8.40;97.90;;;10.20;62.25;98236.34;4844561;29;116091;-85
2023/12/23 07:27:38;;;;;;;1.17;0.83;;;10.10;97.60;;;10.18;62.00;98222.91;4860594;29;123780;-85
2023/12/23 07:30:14;;;;;;;1.77;0.80;;;8.10;97.20;;;10.16;62.24;98236.19;4862938;29;122479;-85
2023/12/23 07:33:01;;;;;;;0.93;0.77;;;10.00;98.10;;;10.13;62.79;98244.31;4873679;29;114857;-85
2023/12/23 07:35:38;;;;;;;1.00;0.80;;;9.20;97.80;;;10.14;62.39;98237.66;4859989;29;115033;-85
2023/12/23 07:38:24;;;;;;;0.90;0.70;;;7.90;97.60;;;10.11;62.34;98244.63;4859717;29;123848;-85
2023/12/23 07:41:11;;;;;;;0.97;0.80;;;10.10;97.80;;;10.13;62.02;98230.53;4860794;29;124050;-85
2023/12/23 07:44:02;;;;;;;1.80;0.80;;;8.20;97.20;;;10.11;61.65;98250.16;4840268;29;114018;-82
2023/12/23 07:46:44;;;;;;;1.10;0.80;;;10.70;97.50;;;10.13;61.18;98252.59;4854544;29;114211;-84
2023/12/23 07:49:13;;;;;;;1.67;0.83;;;9.80;97.40;;;10.13;60.96;98244.31;4858757;29;123755;-83
2023/12/23 07:51:43;;;;;;;0.90;0.70;;;9.80;97.80;;;10.15;60.81;98242.88;4870607;29;123532;-83
2023/12/23 07:54:10;;;;;;;2.03;0.90;;;9.80;98.00;;;10.18;60.05;98250.50;4854144;29;112827;-84
2023/12/23 07:56:37;;;;;;;3.03;1.70;;;9.90;97.20;;;10.20;60.34;98252.13;4838305;29;111886;-84
2023/12/23 07:59:10;;;;;;;1.63;0.80;;;10.30;96.90;;;10.25;60.45;98243.69;4834750;29;123009;-83
2023/12/23 08:01:46;;;;;;;4.63;1.13;;;10.00;96.80;;;10.29;60.57;98255.72;4845517;29;123248;-82
2023/12/23 08:04:13;;;;;;;1.67;1.07;;;10.10;96.70;;;10.32;60.54;98257.84;4845486;29;112860;-83
2023/12/23 08:06:47;;;;;;;2.00;0.83;;;10.50;96.90;;;10.36;60.42;98267.09;4837206;29;112408;-84
2023/12/23 08:09:15;;;;;;;1.27;0.80;;;10.10;97.40;;;10.38;59.62;98279.44;4844251;29;124439;-84
2023/12/23 08:11:41;;;;;;;1.10;0.70;;;12.30;97.60;;;10.40;59.84;98270.84;4845653;29;123023;-83
2023/12/23 08:14:08;;;;;;;1.67;1.00;;;12.40;97.90;;;10.38;60.15;98248.25;4847600;29;112370;-83
2023/12/23 08:16:37;;;;;;;1.40;0.83;;;10.10;96.70;;;10.38;60.14;98270.34;4842656;29;113926;-84
2023/12/23 08:19:12;;;;;;;1.73;0.97;;;10.70;96.70;;;10.38;60.20;98251.03;4827553;29;123139;-83
2023/12/23 08:21:39;;;;;;;2.10;0.90;;;12.10;97.40;;;10.41;60.09;98247.59;4842368;29;123425;-85
2023/12/23 08:24:09;;;;;;;0.90;0.70;;;10.10;96.70;;;10.40;60.05;98254.28;4850159;29;115481;-80
2023/12/23 08:26:36;;;;;;;1.10;0.90;;;10.50;96.60;;;10.41;59.96;98244.84;4844728;29;114589;-83
2023/12/23 08:29:02;;;;;;;1.83;0.80;;;10.10;96.50;;;10.45;58.93;98270.69;4841137;29;123393;-84
2023/12/23 08:31:46;;;;;;;0.90;0.80;;;10.10;96.10;;;10.46;58.15;98255.72;4842054;29;123184;-83
2023/12/23 08:34:21;;;;;;;1.10;0.80;;;10.30;95.80;;;10.49;58.12;98234.94;4847068;29;113487;-83
2023/12/23 08:36:50;;;;;;;1.93;0.87;;;10.20;95.80;;;10.52;58.28;98237.84;4845216;29;113274;-82
2023/12/23 08:39:22;;;;;;;1.10;0.80;;;11.40;96.40;;;10.54;58.70;98241.09;4833408;29;123144;-84
2023/12/23 08:41:50;;;;;;;1.00;0.70;;;10.30;95.80;;;10.57;58.26;98257.03;4847648;29;122963;-85
2023/12/23 08:44:21;;;;;;;0.90;0.70;;;11.70;96.40;;;10.59;58.22;98298.94;4845589;29;114301;-83
2023/12/23 08:46:51;;;;;;;0.90;0.80;;;10.30;95.80;;;10.57;58.08;98254.25;4859322;29;112282;-84
2023/12/23 08:49:27;;;;;;;1.00;0.80;;;12.90;96.60;;;10.58;57.70;98264.16;4838906;29;123290;-84
2023/12/23 08:51:54;;;;;;;1.40;0.80;;;11.40;95.80;;;10.57;57.83;98268.06;4812233;29;121496;-83
2023/12/23 08:54:29;;;;;;;1.30;0.80;;;7.60;94.60;;;10.62;57.82;98269.88;4837331;29;113739;-83
2023/12/23 08:56:56;;;;;;;2.50;0.80;;;11.50;95.90;;;10.65;56.95;98284.97;4847620;29;112795;-84
2023/12/23 08:59:27;;;;;;;1.10;0.70;;;10.80;95.40;;;10.65;57.19;98260.13;4851000;29;123582;-85
2023/12/23 09:02:02;;;;;;;1.20;0.80;;;10.40;95.30;;;10.66;57.57;98258.97;4850945;28;124287;-85
2023/12/23 09:04:53;;;;;;;1.10;0.80;;;10.40;95.20;;;10.66;57.33;98247.91;4853923;29;112916;-84
2023/12/23 09:07:20;;;;;;;1.00;0.80;;;10.30;94.80;;;10.67;56.96;98233.78;4859347;29;112207;-84
2023/12/23 09:09:49;;;;;;;1.30;0.90;;;12.20;96.00;;;10.71;57.15;98250.50;4833598;29;122248;-82
2023/12/23 09:12:46;;;;;;;0.90;0.70;;;10.50;95.50;;;10.72;56.96;98250.19;4849681;29;123115;-83
2023/12/23 09:15:26;;;;;;;0.90;0.70;;;10.50;94.90;;;10.72;57.12;98230.84;4840287;29;116793;-81
2023/12/23 09:18:00;;;;;;;1.47;0.80;;;10.50;94.90;;;10.72;56.77;98263.19;4843689;29;114049;-82
2023/12/23 09:20:32;;;;;;;1.07;0.80;;;10.50;94.80;;;10.72;56.90;98252.13;4848723;29;122099;-84
2023/12/23 09:23:01;;;;;;;1.33;0.80;;;10.50;94.80;;;10.72;57.14;98268.69;4841478;29;123129;-81
2023/12/23 09:25:28;;;;;;;1.03;0.80;;;10.50;94.80;;;10.73;57.04;98270.34;4824141;29;113551;-82
2023/12/23 09:28:00;;;;;;;3.97;0.80;;;10.50;94.80;;;10.74;56.77;98280.25;4843333;29;114237;-82
2023/12/23 09:30:54;;;;;;;0.90;0.70;;;10.50;94.60;;;10.77;56.54;98293.41;4828115;29;122864;-83
2023/12/23 09:33:27;;;;;;;1.53;0.70;;;11.90;95.10;;;10.74;56.25;98289.34;4827323;29;122970;-85
2023/12/23 09:35:58;;;;;;;0.90;0.70;;;10.50;94.40;;;10.70;56.53;98293.91;4841454;29;114036;-83
2023/12/23 09:38:27;;;;;;;1.00;0.73;;;10.50;94.40;;;10.75;56.44;98296.50;4816705;29;112273;-83
2023/12/23 09:41:11;;;;;;;0.90;0.70;;;10.90;94.90;;;10.77;56.32;98302.53;4831820;29;122899;-84
2023/12/23 09:43:52;;;;;;;0.97;0.77;;;10.50;94.50;;;10.78;55.74;98301.38;4841769;29;122458;-84
2023/12/23 09:46:20;;;;;;;1.30;0.80;;;10.50;94.20;;;10.77;55.88;98315.50;4842512;29;113074;-83
2023/12/23 09:48:50;;;;;;;0.90;0.70;;;10.60;94.20;;;10.80;55.88;98345.25;4846279;29;112243;-83
2023/12/23 09:51:17;;;;;;;0.80;0.70;;;10.60;94.20;;;10.81;55.42;98322.03;4844846;29;123320;-84
2023/12/23 09:53:49;;;;;;;2.60;0.93;;;10.60;94.10;;;10.81;55.74;98314.53;4842309;29;122240;-84
2023/12/23 09:56:30;;;;;;;1.07;0.70;;;10.70;94.20;;;10.83;56.33;98314.22;4834268;29;113510;-84
2023/12/23 09:58:57;;;;;;;1.10;0.83;;;10.60;94.20;;;10.86;55.93;98308.06;4830721;29;114037;-84
2023/12/23 10:01:29;;;;;;;0.90;0.70;;;10.60;94.20;;;10.91;55.36;98316.19;4844181;29;122344;-83
2023/12/23 10:04:06;;;;;;;1.00;0.80;;;10.60;94.00;;;10.90;55.51;98286.91;4847474;29;122779;-84
2023/12/23 10:06:35;;;;;;;0.97;0.80;;;10.60;94.10;;;10.91;55.76;98301.53;4849908;29;114373;-84
2023/12/23 10:09:18;;;;;;;1.00;0.73;;;10.60;94.00;;;10.89;55.85;98307.41;4845327;29;114182;-85
2023/12/23 10:11:47;;;;;;;1.77;0.80;;;10.60;94.00;;;10.87;55.37;98293.09;4846109;29;123037;-83
2023/12/23 10:14:20;;;;;;;0.90;0.70;;;10.90;94.00;;;10.89;55.09;98296.34;4846366;29;124340;-82
2023/12/23 10:16:54;;;;;;;0.90;0.80;;;11.10;94.00;;;10.92;55.66;98328.03;4840352;29;112848;-84
2023/12/23 10:19:28;;;;;;;0.90;0.80;;;10.70;93.90;;;10.92;55.33;98292.09;4861559;29;112712;-85
2023/12/23 10:22:02;;;;;;;0.90;0.80;;;10.70;93.90;;;10.91;55.41;98310.66;4844576;29;123664;-83
2023/12/23 10:24:37;;;;;;;0.87;0.70;;;10.70;93.90;;;10.92;55.17;98290.16;4848325;29;122715;-84
2023/12/23 10:27:06;;;;;;;0.80;0.70;;;10.60;93.80;;;10.90;55.68;98309.00;4837310;29;114418;-83
2023/12/23 10:29:41;;;;;;;1.03;0.80;;;10.60;93.90;;;10.87;55.56;98309.66;4845263;29;113629;-85
2023/12/23 10:32:24;;;;;;;1.07;0.77;;;10.60;93.90;;;10.85;55.59;98309.16;4836945;29;123617;-84
2023/12/23 10:35:02;;;;;;;0.97;0.77;;;10.60;94.00;;;10.80;55.61;98277.00;4840822;29;123067;-83
2023/12/23 10:37:29;;;;;;;1.03;0.80;;;10.60;94.10;;;10.81;55.72;98288.88;4834363;29;112764;-83
2023/12/23 10:40:16;;;;;;;1.47;0.73;;;10.50;94.10;;;10.83;56.08;98281.06;4831220;29;113286;-83
2023/12/23 10:42:47;;;;;;;0.90;0.70;;;10.60;94.20;;;10.85;56.09;98289.81;4847247;29;123952;-85
2023/12/23 10:45:27;;;;;;;1.10;0.90;;;10.60;94.30;;;10.87;56.13;98301.38;4835026;29;121884;-85
2023/12/23 10:48:07;;;;;;;1.00;0.80;;;10.70;94.30;;;10.87;56.08;98293.09;4847194;29;112736;-82
2023/12/23 10:50:43;;;;;;;1.73;0.80;;;10.60;94.30;;;10.87;55.83;98292.28;4867004;29;112415;-83
2023/12/23 10:53:14;;;;;;;1.00;0.90;;;10.30;94.20;;;10.87;56.52;98293.09;4848856;29;123625;-84